Time;durP1;ratioP1;P1;durP2;ratioP2;P2;SDS_P1;SDS_P2;PMS_P1;PMS_P2;Temp;Humidity;BMP_temperature;BMP_pressure;BME280_temperature;BME280_humidity;BME280_pressure;Samples;Min_cycle;Max_cycle;Signal;HPM_P1;HPM_P2
2022/06/14 00:00:56;;;;;;;13.88;11.48;;;;;;;16.78;85.24;98881.56;5116647;27;20138;-63
2022/06/14 00:03:22;;;;;;;21.48;12.27;;;;;;;16.77;84.94;98877.19;5078078;27;20034;-62
2022/06/14 00:05:47;;;;;;;16.85;11.90;;;;;;;16.79;84.54;98883.25;5099635;27;20696;-63
2022/06/14 00:08:12;;;;;;;15.68;11.02;;;;;;;16.80;84.73;98884.09;5117244;27;20416;-63
2022/06/14 00:10:38;;;;;;;15.10;11.68;;;;;;;16.80;85.05;98879.53;5116641;27;20434;-65
2022/06/14 00:13:04;;;;;;;18.60;11.68;;;;;;;16.87;84.18;98883.22;5095831;27;20146;-65
2022/06/14 00:15:29;;;;;;;14.52;10.90;;;;;;;16.82;84.23;98873.97;5116877;27;20042;-65
2022/06/14 00:17:54;;;;;;;15.77;11.32;;;;;;;16.79;84.28;98872.47;5097265;27;20051;-64
2022/06/14 00:20:19;;;;;;;13.30;11.35;;;;;;;16.76;84.18;98878.19;5116048;27;20281;-64
2022/06/14 00:22:43;;;;;;;15.88;11.75;;;;;;;16.75;84.14;98872.97;5096295;27;20042;-64
2022/06/14 00:25:21;;;;;;;16.30;11.35;;;;;;;16.80;84.46;98873.31;5115014;27;20035;-65
2022/06/14 00:27:46;;;;;;;14.98;11.75;;;;;;;16.73;84.60;98870.44;5097667;27;20046;-64
2022/06/14 00:30:11;;;;;;;16.13;10.82;;;;;;;16.73;84.34;98869.59;5098135;27;20035;-65
2022/06/14 00:32:36;;;;;;;16.70;11.68;;;;;;;16.69;84.35;98871.78;5081011;27;20484;-66
2022/06/14 00:35:00;;;;;;;14.45;12.25;;;;;;;16.69;84.55;98867.25;5097479;27;20510;-65
2022/06/14 00:37:25;;;;;;;17.65;12.05;;;;;;;16.67;84.77;98863.03;5119434;27;20042;-65
2022/06/14 00:39:50;;;;;;;13.57;11.23;;;;;;;16.66;84.82;98872.97;5121169;27;20099;-63
2022/06/14 00:42:21;;;;;;;14.25;10.65;;;;;;;16.66;84.88;98874.81;5122478;27;20095;-64
2022/06/14 00:45:13;;;;;;;13.90;10.88;;;;;;;16.70;84.53;98870.78;5102116;27;20126;-71
2022/06/14 00:48:10;;;;;;;13.48;11.25;;;;;;;16.65;84.53;98871.28;5099903;27;20046;-70
2022/06/14 00:50:48;;;;;;;14.25;10.88;;;;;;;16.63;84.60;98864.38;5099464;27;20046;-65
2022/06/14 00:53:26;;;;;;;14.70;10.98;;;;;;;16.60;84.86;98865.50;5117916;27;20066;-71
2022/06/14 00:56:10;;;;;;;36.28;18.83;;;;;;;16.59;84.67;98858.44;5117149;27;20042;-70
2022/06/14 00:58:41;;;;;;;20.00;15.40;;;;;;;16.53;84.52;98864.50;5097750;27;20042;-66
2022/06/14 01:01:18;;;;;;;21.08;14.05;;;;;;;16.54;84.44;98866.19;5098943;27;20035;-66
2022/06/14 01:03:49;;;;;;;16.23;12.43;;;;;;;16.50;84.61;98863.97;5116641;27;20070;-66
2022/06/14 01:06:27;;;;;;;21.35;11.98;;;;;;;16.54;84.86;98863.50;5117017;27;20087;-64
2022/06/14 01:08:59;;;;;;;15.77;12.90;;;;;;;16.52;84.90;98867.34;5117679;27;20042;-61
2022/06/14 01:11:30;;;;;;;17.05;12.52;;;;;;;16.55;84.92;98872.41;5082240;27;20041;-66
2022/06/14 01:13:55;;;;;;;19.10;13.10;;;;;;;16.54;84.92;98870.72;5117765;27;20385;-67
2022/06/14 01:16:20;;;;;;;16.95;12.85;;;;;;;16.56;84.81;98866.03;5117107;27;20457;-68
2022/06/14 01:18:45;;;;;;;16.77;12.15;;;;;;;16.57;84.76;98870.41;5117276;27;20054;-70
2022/06/14 01:21:10;;;;;;;17.80;12.23;;;;;;;16.61;84.82;98869.03;5116443;27;20034;-68
2022/06/14 01:23:34;;;;;;;18.33;11.77;;;;;;;16.63;84.34;98869.75;5101664;27;20042;-71
2022/06/14 01:26:16;;;;;;;24.40;15.85;;;;;;;16.70;84.50;98876.16;5121477;27;20069;-70
2022/06/14 01:28:45;;;;;;;24.98;14.85;;;;;;;16.66;84.17;98881.03;5121234;27;20405;-71
2022/06/14 01:31:12;;;;;;;15.95;12.52;;;;;;;16.68;84.18;98878.19;5120701;27;20033;-71
2022/06/14 01:33:43;;;;;;;13.52;11.63;;;;;;;16.72;84.12;98884.06;5124906;27;20042;-73
2022/06/14 01:36:18;;;;;;;15.15;11.38;;;;;;;16.77;83.77;98882.56;5128389;27;20042;-69
2022/06/14 01:38:45;;;;;;;18.42;12.65;;;;;;;16.77;83.63;98876.34;5129890;27;20042;-70
2022/06/14 01:41:10;;;;;;;14.07;11.00;;;;;;;16.78;83.42;98878.84;5070035;27;20041;-67
2022/06/14 01:43:59;;;;;;;14.05;10.85;;;;;;;16.87;83.28;98879.69;5103711;27;20047;-72
2022/06/14 01:46:32;;;;;;;18.50;11.23;;;;;;;16.82;83.16;98882.88;5118756;27;20050;-68
2022/06/14 01:52:32;;;;;;;16.92;11.82;;;;;;;16.82;82.78;98880.19;5117131;27;20042;-69
2022/06/14 01:55:15;;;;;;;16.95;11.55;;;;;;;16.84;82.57;98880.88;5118269;27;20062;-72
2022/06/14 01:57:54;;;;;;;17.45;13.27;;;;;;;16.93;82.66;98893.31;5119159;27;20055;-75
2022/06/14 02:00:28;;;;;;;17.83;12.98;;;;;;;16.90;82.29;98885.59;5115328;27;20047;-67
2022/06/14 02:04:36;;;;;;;;;;;;;;;16.95;82.49;98880.53;5116978;27;20373;-63
2022/06/14 02:05:46;;;;;;;19.73;13.27;;;;;;;16.84;82.29;98883.56;5080366;27;19919;-63
2022/06/14 02:08:22;;;;;;;18.65;12.70;;;;;;;16.89;82.60;98885.75;5115598;27;20050;-62
2022/06/14 02:11:04;;;;;;;15.10;12.07;;;;;;;16.93;82.73;98893.31;5116498;27;20413;-63
2022/06/14 02:13:39;;;;;;;17.13;12.48;;;;;;;16.96;82.60;98887.59;5115928;27;20396;-64
2022/06/14 02:16:19;;;;;;;15.13;12.23;;;;;;;17.05;82.28;98886.59;5116324;27;20063;-69
2022/06/14 02:18:53;;;;;;;15.77;11.48;;;;;;;17.10;82.45;98880.69;5097404;27;20074;-64
2022/06/14 02:21:59;;;;;;;20.77;12.13;;;;;;;17.16;81.92;98887.25;5097640;27;20087;-64
2022/06/14 02:24:29;;;;;;;14.13;12.13;;;;;;;17.22;81.78;98883.88;4998757;28;20051;-65
2022/06/14 02:27:13;;;;;;;18.08;12.30;;;;;;;17.34;81.55;98893.31;5032675;28;20071;-65
2022/06/14 02:29:43;;;;;;;17.95;12.27;;;;;;;17.36;81.81;98889.44;5032357;28;20418;-66
2022/06/14 02:32:16;;;;;;;15.93;13.10;;;;;;;17.49;81.37;98885.38;5032486;28;20033;-66
2022/06/14 02:34:47;;;;;;;18.00;13.85;;;;;;;17.60;81.33;98885.84;5032585;28;20486;-65
2022/06/14 02:37:20;;;;;;;20.92;13.73;;;;;;;17.67;80.92;98888.72;5031158;28;20043;-64
2022/06/14 02:39:52;;;;;;;19.23;14.70;;;;;;;17.72;80.30;98894.41;5029639;28;20071;-64
2022/06/14 02:42:28;;;;;;;20.63;13.63;;;;;;;17.76;79.88;98884.97;5028525;28;20040;-64
2022/06/14 02:45:03;;;;;;;16.50;12.70;;;;;;;17.73;79.67;98886.16;5030938;28;20133;-64
2022/06/14 02:47:38;;;;;;;16.20;13.27;;;;;;;17.75;79.86;98886.81;5031145;28;20040;-66
2022/06/14 02:50:24;;;;;;;13.27;11.80;;;;;;;17.81;80.08;98873.69;5029450;28;21009;-64
2022/06/14 02:52:54;;;;;;;16.40;12.45;;;;;;;17.75;79.79;98884.13;5030869;28;20055;-64
2022/06/14 02:55:26;;;;;;;15.82;12.40;;;;;;;17.82;79.98;98886.16;5070298;27;20059;-64
2022/06/14 02:58:10;;;;;;;16.92;12.75;;;;;;;17.89;80.34;98879.03;5093281;27;20550;-65
2022/06/14 03:00:42;;;;;;;14.57;11.88;;;;;;;17.95;80.24;98872.91;5095792;27;20034;-64
2022/06/14 03:03:13;;;;;;;17.65;13.10;;;;;;;18.07;79.87;98885.00;5079192;27;20026;-65
2022/06/14 03:05:54;;;;;;;19.13;13.20;;;;;;;18.27;79.72;98886.28;5094386;27;20490;-64
2022/06/14 03:08:28;;;;;;;18.30;12.57;;;;;;;18.50;79.22;98879.06;5108987;27;20034;-64
2022/06/14 03:11:05;;;;;;;16.10;12.27;;;;;;;18.83;78.33;98878.84;5111296;27;20054;-65
2022/06/14 03:13:56;;;;;;;25.00;16.38;;;;;;;19.08;77.68;98865.97;5077751;27;20039;-64
2022/06/14 03:16:33;;;;;;;16.08;13.07;;;;;;;19.43;76.33;98875.25;5105561;27;20039;-65
2022/06/14 03:19:13;;;;;;;15.95;11.95;;;;;;;19.74;75.04;98875.97;5115512;27;20087;-65
2022/06/14 03:21:50;;;;;;;16.20;11.82;;;;;;;20.01;74.27;98874.44;5081102;27;20038;-67
2022/06/14 03:24:32;;;;;;;18.00;11.88;;;;;;;20.34;73.04;98885.69;5100306;27;20575;-66
2022/06/14 03:27:15;;;;;;;18.73;12.50;;;;;;;20.54;72.60;98880.56;5119279;27;20046;-67
2022/06/14 03:29:49;;;;;;;21.70;15.80;;;;;;;20.66;71.76;98884.41;5118681;27;20050;-66
2022/06/14 03:32:35;;;;;;;19.88;14.35;;;;;;;20.77;71.61;98877.66;5100132;27;20035;-66
2022/06/14 03:35:10;;;;;;;19.92;15.40;;;;;;;20.79;71.48;98883.69;5101034;27;20544;-68
2022/06/14 03:37:35;;;;;;;19.80;13.77;;;;;;;20.75;71.37;98880.56;5102031;27;20472;-65
2022/06/14 03:40:04;;;;;;;22.75;15.30;;;;;;;20.78;71.32;98887.44;5119813;27;20491;-66
2022/06/14 03:42:29;;;;;;;21.98;17.55;;;;;;;20.78;71.25;98882.88;5101510;27;20616;-66
2022/06/14 03:44:54;;;;;;;25.17;18.73;;;;;;;20.77;70.71;98880.38;5102607;27;20710;-65
2022/06/14 03:47:23;;;;;;;22.02;16.33;;;;;;;20.80;70.76;98880.81;5119309;27;20049;-65
2022/06/14 03:49:56;;;;;;;22.85;18.58;;;;;;;20.89;70.71;98876.94;5101063;27;20079;-67
2022/06/14 03:52:24;;;;;;;21.65;17.77;;;;;;;20.99;70.14;98884.75;5119250;27;20188;-66
2022/06/14 03:54:51;;;;;;;24.67;18.58;;;;;;;21.06;69.88;98879.38;5120114;27;20484;-66
2022/06/14 03:57:35;;;;;;;25.98;18.80;;;;;;;21.26;69.38;98872.28;5119958;27;20054;-67
2022/06/14 04:00:06;;;;;;;25.33;17.90;;;;;;;21.29;68.84;98880.88;5119960;27;20039;-67
2022/06/14 04:02:54;;;;;;;20.40;16.92;;;;;;;21.38;68.71;98886.97;5102284;27;20450;-68
2022/06/14 04:05:34;;;;;;;23.95;17.48;;;;;;;21.36;69.00;98886.34;5102642;27;20038;-68
2022/06/14 04:08:10;;;;;;;24.08;19.70;;;;;;;21.26;68.44;98883.97;5121099;27;20125;-67
2022/06/14 04:10:45;;;;;;;24.25;17.63;;;;;;;21.16;68.60;98888.84;5101937;27;20117;-67
2022/06/14 04:13:59;;;;;;;22.60;17.42;;;;;;;21.11;69.39;98887.75;5100028;27;20049;-69
2022/06/14 04:16:27;;;;;;;20.98;15.50;;;;;;;20.94;69.30;98882.63;5010605;28;20128;-66
2022/06/14 04:18:56;;;;;;;28.15;17.40;;;;;;;20.93;69.40;98882.81;5059218;28;20492;-69
2022/06/14 04:21:30;;;;;;;22.38;15.27;;;;;;;21.11;69.91;98879.63;5022992;28;20085;-67
2022/06/14 04:24:24;;;;;;;21.45;15.27;;;;;;;21.50;69.37;98871.84;5055062;28;20044;-68
2022/06/14 04:27:14;;;;;;;17.90;14.48;;;;;;;21.83;68.02;98877.47;5056464;28;20071;-68
2022/06/14 04:30:01;;;;;;;19.65;14.55;;;;;;;22.12;66.71;98879.13;5058255;28;20051;-68
2022/06/14 04:32:40;;;;;;;19.67;13.82;;;;;;;22.39;65.65;98872.75;5058291;28;20040;-67
2022/06/14 04:35:19;;;;;;;15.70;13.35;;;;;;;22.57;64.59;98869.47;5037241;28;20039;-65
2022/06/14 04:38:00;;;;;;;18.45;13.27;;;;;;;22.80;63.65;98875.38;5054286;28;20075;-65
2022/06/14 04:40:33;;;;;;;22.60;15.25;;;;;;;23.04;62.98;98873.09;5023971;28;20052;-67
2022/06/14 04:43:05;;;;;;;18.25;13.60;;;;;;;23.31;63.01;98879.41;5057964;28;20040;-65
2022/06/14 04:45:35;;;;;;;16.52;12.70;;;;;;;23.43;62.10;98867.69;5056003;28;20130;-66
2022/06/14 04:48:38;;;;;;;18.85;13.63;;;;;;;23.70;61.77;98864.97;5054065;28;20055;-64
2022/06/14 04:51:15;;;;;;;19.73;14.70;;;;;;;23.97;60.22;98869.25;5038960;28;20044;-66
2022/06/14 04:53:59;;;;;;;21.63;13.32;;;;;;;24.29;59.48;98869.38;5111757;27;20574;-65
2022/06/14 04:56:32;;;;;;;18.60;13.88;;;;;;;24.52;57.96;98872.41;5120191;27;20078;-74
2022/06/14 04:59:03;;;;;;;17.17;12.68;;;;;;;24.73;57.08;98872.06;5117100;27;20043;-69
2022/06/14 05:01:46;;;;;;;16.02;12.40;;;;;;;25.06;56.89;98874.59;5117144;27;20401;-68
2022/06/14 05:04:25;;;;;;;17.55;11.95;;;;;;;25.38;56.36;98869.13;5098593;27;20501;-71
2022/06/14 05:07:07;;;;;;;17.48;13.40;;;;;;;25.50;55.38;98862.72;5118937;27;20489;-69
2022/06/14 05:09:58;;;;;;;21.65;13.25;;;;;;;25.57;55.00;98860.75;5098835;27;20045;-69
2022/06/14 05:13:05;;;;;;;17.95;13.05;;;;;;;25.88;54.79;98861.72;5098464;27;20046;-69
2022/06/14 05:15:56;;;;;;;13.15;11.32;;;;;;;26.11;53.76;98863.75;5116438;27;20440;-70
2022/06/14 05:18:46;;;;;;;14.45;10.65;;;;;;;26.37;53.49;98872.50;5116523;27;20077;-69
2022/06/14 05:21:24;;;;;;;17.85;12.40;;;;;;;26.67;51.99;98864.31;5116899;27;20497;-70
2022/06/14 05:23:53;;;;;;;12.55;10.68;;;;;;;26.82;50.74;98866.63;5097873;27;20177;-69
2022/06/14 05:26:22;;;;;;;12.18;10.93;;;;;;;26.99;50.63;98861.34;5098279;27;20061;-69
2022/06/14 05:29:12;;;;;;;17.60;13.43;;;;;;;27.22;50.38;98860.53;5116652;27;20446;-68
2022/06/14 05:31:58;;;;;;;12.77;11.38;;;;;;;27.13;49.54;98860.06;5116534;27;20043;-69
2022/06/14 05:34:44;;;;;;;12.18;10.45;;;;;;;27.47;49.75;98859.25;5097933;27;20073;-69
2022/06/14 05:37:25;;;;;;;15.48;12.00;;;;;;;27.91;49.22;98847.94;5116579;27;20034;-69
2022/06/14 05:39:57;;;;;;;13.35;10.63;;;;;;;28.20;47.67;98843.41;5097388;27;20054;-71
2022/06/14 05:42:29;;;;;;;11.00;9.70;;;;;;;28.50;46.42;98847.59;5116397;27;20043;-70
2022/06/14 05:44:59;;;;;;;13.73;10.13;;;;;;;28.86;45.71;98848.28;5116679;27;20048;-70
2022/06/14 05:47:41;;;;;;;15.30;10.95;;;;;;;28.67;46.00;98852.31;5116789;27;20039;-69
2022/06/14 05:50:19;;;;;;;14.02;10.18;;;;;;;28.40;45.51;98846.56;5117383;27;20047;-69
2022/06/14 05:52:53;;;;;;;16.58;10.55;;;;;;;28.12;46.36;98841.84;5099681;27;20496;-69
2022/06/14 05:55:24;;;;;;;13.02;10.77;;;;;;;27.81;45.88;98835.72;5119238;27;20046;-70
2022/06/14 05:57:56;;;;;;;12.50;9.80;;;;;;;27.71;47.07;98834.66;5100459;27;20053;-70
2022/06/14 06:00:53;;;;;;;11.98;9.57;;;;;;;27.96;47.17;98834.38;5100428;27;20070;-70
2022/06/14 06:04:06;;;;;;;11.40;8.93;;;;;;;28.11;46.63;98834.69;5082153;27;20662;-70
2022/06/14 06:06:37;;;;;;;13.38;8.57;;;;;;;28.00;44.53;98836.38;4997460;28;20049;-67
2022/06/14 06:09:10;;;;;;;12.70;8.90;;;;;;;28.50;44.22;98835.78;4997665;28;20558;-68
2022/06/14 06:11:43;;;;;;;8.63;7.83;;;;;;;29.08;43.37;98837.41;4998145;28;20618;-69
2022/06/14 06:14:13;;;;;;;11.83;9.07;;;;;;;29.66;42.24;98839.75;5013735;28;20048;-68
2022/06/14 06:19:44;;;;;;;11.23;7.22;;;;;;;30.86;40.21;98843.47;5012785;28;20072;-69
2022/06/14 06:22:15;;;;;;;12.93;7.70;;;;;;;31.45;38.55;98836.00;5011161;28;20468;-67
2022/06/14 06:24:51;;;;;;;9.55;7.75;;;;;;;31.72;37.37;98841.44;5012098;28;20483;-68
2022/06/14 06:27:22;;;;;;;9.45;7.60;;;;;;;31.82;35.93;98840.69;4995570;28;20507;-68
2022/06/14 06:29:55;;;;;;;14.50;7.38;;;;;;;31.84;35.98;98831.03;5012052;28;20381;-69
2022/06/14 06:32:25;;;;;;;14.45;8.20;;;;;;;31.53;35.51;98826.41;5012450;28;20044;-68
2022/06/14 06:34:51;;;;;;;13.45;7.97;;;;;;;30.95;37.07;98828.13;4995673;28;20053;-69
2022/06/14 06:37:35;;;;;;;7.90;7.10;;;;;;;31.05;37.15;98831.81;4995726;28;20410;-69
2022/06/14 06:40:04;;;;;;;14.85;6.55;;;;;;;30.92;35.54;98823.16;4995738;28;20053;-69
2022/06/14 06:42:34;;;;;;;8.05;7.10;;;;;;;31.45;35.64;98824.16;5090214;27;20075;-69
2022/06/14 06:45:06;;;;;;;10.23;6.10;;;;;;;32.24;34.80;98821.34;5080144;27;20058;-68
2022/06/14 06:48:12;;;;;;;9.73;7.40;;;;;;;32.81;34.36;98826.78;5115177;27;20042;-68
2022/06/14 06:50:45;;;;;;;11.45;7.15;;;;;;;32.26;34.32;98819.16;4996645;28;20111;-68
2022/06/14 06:53:15;;;;;;;7.72;6.95;;;;;;;32.17;33.81;98812.47;5013982;28;20048;-69
2022/06/14 06:55:43;;;;;;;8.20;6.30;;;;;;;31.73;34.04;98815.53;5015968;28;20551;-69
2022/06/14 06:58:34;;;;;;;9.88;7.07;;;;;;;31.13;35.13;98811.25;5002474;28;20113;-70
2022/06/14 07:01:07;;;;;;;8.52;7.20;;;;;;;31.29;35.33;98820.47;5000767;28;20103;-68
2022/06/14 07:03:40;;;;;;;11.60;7.47;;;;;;;32.31;32.96;98806.19;5019288;28;20063;-70
2022/06/14 07:06:07;;;;;;;9.98;7.47;;;;;;;33.37;31.42;98815.78;5001723;28;20080;-71
2022/06/14 07:08:53;;;;;;;8.70;6.90;;;;;;;33.01;32.98;98815.75;5016983;28;20099;-69
2022/06/14 07:11:23;;;;;;;12.70;7.90;;;;;;;31.62;34.27;98813.78;5033501;28;20040;-67
2022/06/14 07:13:58;;;;;;;9.07;8.18;;;;;;;30.58;36.27;98812.38;4983401;28;20057;-65
2022/06/14 07:16:44;;;;;;;10.00;6.85;;;;;;;30.38;37.96;98814.03;5016355;28;20061;-66
2022/06/14 07:19:38;;;;;;;9.48;7.88;;;;;;;30.10;38.96;98804.91;5016844;28;20423;-65
2022/06/14 07:22:08;;;;;;;;;;;;;;;29.75;39.88;98798.94;5014564;28;20053;-65
2022/06/14 07:24:41;;;;;;;9.75;7.93;;;;;;;28.18;42.78;98808.03;4999854;28;20023;-66
2022/06/14 07:27:13;;;;;;;11.50;8.87;;;;;;;27.03;43.90;98808.66;5065122;27;20050;-67
2022/06/14 07:29:51;;;;;;;15.95;8.60;;;;;;;26.37;46.26;98798.72;5100477;27;20519;-65
2022/06/14 07:32:25;;;;;;;10.90;8.77;;;;;;;25.81;47.67;98798.16;5118685;27;20042;-67
2022/06/14 07:34:51;;;;;;;15.23;8.90;;;;;;;26.62;46.15;98801.31;5083250;27;20152;-65
2022/06/14 07:37:34;;;;;;;12.55;7.00;;;;;;;28.27;42.89;98802.97;5100368;27;20038;-65
2022/06/14 07:40:21;;;;;;;9.82;6.57;;;;;;;31.63;34.75;98790.66;5118436;27;20042;-68
2022/06/14 07:42:57;;;;;;;8.55;6.22;;;;;;;34.41;29.30;98800.28;5118266;27;20047;-67
2022/06/14 07:45:34;;;;;;;10.90;7.07;;;;;;;33.89;32.48;98805.16;5099692;27;20034;-65
2022/06/14 07:48:15;;;;;;;9.00;6.82;;;;;;;32.49;32.41;98801.28;5117920;27;20062;-64
2022/06/14 07:50:47;;;;;;;9.75;6.47;;;;;;;30.81;35.61;98799.41;5099360;27;20501;-65
2022/06/14 07:53:32;;;;;;;9.35;6.70;;;;;;;29.36;37.73;98798.03;5100710;27;20511;-65
2022/06/14 07:56:12;;;;;;;9.45;6.70;;;;;;;27.81;41.19;98791.88;5125818;27;20205;-64
2022/06/14 07:58:42;;;;;;;6.97;6.28;;;;;;;27.10;42.53;98781.19;5119408;27;20133;-65
2022/06/14 08:01:15;;;;;;;6.90;6.07;;;;;;;27.65;42.33;98783.59;5117870;27;20039;-65
2022/06/14 08:04:00;;;;;;;8.30;6.57;;;;;;;27.06;42.95;98786.31;5118030;27;20138;-65
2022/06/14 08:06:36;;;;;;;8.60;6.75;;;;;;;26.92;42.94;98782.13;5116798;27;20038;-64
2022/06/14 08:09:08;;;;;;;7.57;6.65;;;;;;;28.81;39.80;98776.84;5118109;27;20387;-65
2022/06/14 08:11:44;;;;;;;11.40;6.68;;;;;;;31.32;34.92;98776.69;5117597;27;20062;-65
2022/06/14 08:14:18;;;;;;;7.10;6.40;;;;;;;33.26;30.56;98778.22;5099349;27;20050;-63
2022/06/14 08:16:44;;;;;;;6.85;5.60;;;;;;;34.66;29.21;98782.66;5117898;27;20477;-65
2022/06/14 08:19:15;;;;;;;7.75;6.63;;;;;;;36.75;27.56;98774.66;5117187;27;20047;-64
2022/06/14 08:21:48;;;;;;;7.85;6.25;;;;;;;38.90;26.02;98776.56;5082015;27;20050;-65
2022/06/14 08:24:22;;;;;;;8.05;7.10;;;;;;;39.79;24.52;98842.63;5099008;27;20046;-66
2022/06/14 08:26:55;;;;;;;7.65;6.43;;;;;;;39.52;23.33;98844.44;5116944;27;20038;-65
2022/06/14 08:29:27;;;;;;;7.50;6.80;;;;;;;38.56;23.56;98774.31;5117878;27;20054;-65
2022/06/14 08:31:59;;;;;;;13.45;10.38;;;;;;;38.80;23.77;98772.06;5099297;27;20034;-67
2022/06/14 08:34:36;;;;;;;8.57;7.78;;;;;;;39.21;23.08;98768.28;5117526;27;20048;-66
2022/06/14 08:37:25;;;;;;;8.95;6.43;;;;;;;39.16;22.37;98769.25;5098656;27;20037;-65
2022/06/14 08:39:53;;;;;;;6.43;5.82;;;;;;;39.01;21.76;98777.97;5118245;27;20477;-67
2022/06/14 08:42:31;;;;;;;7.57;6.80;;;;;;;39.32;21.31;98761.28;5117364;27;20112;-67
2022/06/14 08:45:14;;;;;;;13.05;7.43;;;;;;;39.15;20.90;98766.78;5098673;27;20045;-67
2022/06/14 08:47:54;;;;;;;10.23;7.50;;;;;;;38.57;23.38;98772.34;5117713;27;20042;-67
2022/06/14 08:50:23;;;;;;;9.70;7.43;;;;;;;38.35;23.68;98773.94;5117536;27;20045;-66
2022/06/14 08:53:12;;;;;;;6.47;5.88;;;;;;;37.86;22.51;98759.91;5117597;27;20034;-66
2022/06/14 08:55:55;;;;;;;14.73;9.18;;;;;;;38.19;23.92;98764.25;5098313;27;20133;-68
2022/06/14 08:58:39;;;;;;;8.48;7.45;;;;;;;39.03;21.74;98761.78;5118677;27;20039;-67
2022/06/14 09:01:32;;;;;;;8.43;6.88;;;;;;;38.54;20.78;98750.69;5117290;27;20035;-67
2022/06/14 09:04:15;;;;;;;7.13;6.00;;;;;;;39.72;20.50;98756.59;5098784;27;20508;-70
2022/06/14 09:06:51;;;;;;;7.40;6.70;;;;;;;40.26;20.47;98752.50;5116930;27;20061;-67
2022/06/14 09:10:02;;;;;;;11.57;8.10;;;;;;;39.87;19.76;98749.75;5116985;27;20042;-66
2022/06/14 09:12:41;;;;;;;9.38;7.80;;;;;;;40.56;20.22;98745.16;5072954;28;20039;-66
2022/06/14 09:15:45;;;;;;;8.35;7.65;;;;;;;41.21;18.47;98754.50;5073345;28;20058;-66
2022/06/14 09:18:21;;;;;;;8.77;7.88;;;;;;;41.74;18.47;98739.22;4992995;28;20065;-66
2022/06/14 09:21:07;;;;;;;11.43;9.90;;;;;;;42.26;18.97;98742.56;4960310;28;20056;-65
2022/06/14 09:24:09;;;;;;;9.50;8.65;;;;;;;42.44;18.28;98743.31;4993516;28;20131;-66
2022/06/14 09:27:12;;;;;;;9.23;8.00;;;;;;;41.21;19.13;98737.72;4992358;28;20053;-66
2022/06/14 09:30:02;;;;;;;7.60;6.90;;;;;;;40.07;20.20;98721.25;4975099;28;20405;-65
2022/06/14 09:33:09;;;;;;;8.25;7.50;;;;;;;38.02;21.23;98706.41;4993565;28;20044;-65
2022/06/14 09:35:56;;;;;;;8.88;8.05;;;;;;;39.09;22.08;98712.25;4976439;28;20057;-66
2022/06/14 09:38:57;;;;;;;9.60;8.60;;;;;;;40.91;20.06;98706.84;4993135;28;20053;-66
2022/06/14 09:41:58;;;;;;;11.35;7.70;;;;;;;42.78;18.46;98711.38;4992826;28;20049;-66
2022/06/14 09:44:23;;;;;;;9.35;8.40;;;;;;;43.14;17.18;98711.47;4951200;28;20050;-65
2022/06/14 09:46:56;;;;;;;8.68;7.97;;;;;;;42.52;17.26;98701.19;4953790;28;20046;-65
2022/06/14 09:49:43;;;;;;;8.45;7.75;;;;;;;42.09;17.33;98704.31;4953720;28;20125;-65
2022/06/14 09:52:29;;;;;;;14.02;8.20;;;;;;;42.33;16.52;98698.81;4954241;28;20448;-66
2022/06/14 09:55:27;;;;;;;8.80;8.10;;;;;;;43.01;16.42;98693.81;4983459;28;20147;-65
2022/06/14 09:58:06;;;;;;;8.85;8.10;;;;;;;44.61;16.13;98704.72;5017061;28;20048;-66
2022/06/14 10:00:36;;;;;;;10.82;10.02;;;;;;;44.50;15.40;98695.16;5034876;28;20048;-67
2022/06/14 10:03:25;;;;;;;10.73;9.70;;;;;;;45.74;15.31;98692.13;5032976;28;20052;-66
2022/06/14 10:06:24;;;;;;;10.45;9.65;;;;;;;45.67;13.37;98678.72;5033446;28;20088;-67
2022/06/14 10:09:30;;;;;;;9.68;8.98;;;;;;;44.97;13.12;98680.44;5032937;28;20206;-65
2022/06/14 10:12:05;;;;;;;11.02;10.25;;;;;;;42.75;15.58;98660.41;4953966;28;20058;-67
2022/06/14 10:14:42;;;;;;;9.75;9.05;;;;;;;44.00;15.22;98667.53;4953822;28;20074;-66
2022/06/14 10:17:40;;;;;;;9.88;9.13;;;;;;;45.05;15.06;98671.00;4953266;28;20061;-68
2022/06/14 10:20:27;;;;;;;9.70;9.00;;;;;;;44.41;15.01;98667.19;4954649;28;20042;-66
2022/06/14 10:23:25;;;;;;;8.93;8.13;;;;;;;44.40;15.23;98676.81;4992840;28;20132;-66
2022/06/14 10:29:25;;;;;;;9.73;8.95;;;;;;;43.57;15.45;98657.69;5012259;28;20548;-66
2022/06/14 10:32:12;;;;;;;9.82;9.00;;;;;;;43.22;15.61;98646.09;5016433;28;20087;-66
2022/06/14 10:35:07;;;;;;;9.13;8.23;;;;;;;41.82;16.74;98646.78;5016400;28;20227;-67
2022/06/14 10:37:38;;;;;;;9.07;7.43;;;;;;;38.80;20.28;98638.31;5016122;28;20045;-66
2022/06/14 10:40:24;;;;;;;7.60;6.90;;;;;;;37.60;19.76;98640.78;5016016;28;20045;-66
2022/06/14 10:43:11;;;;;;;10.88;6.47;;;;;;;35.46;22.11;98619.59;4999867;28;20172;-66
2022/06/14 10:45:54;;;;;;;6.15;5.60;;;;;;;33.97;24.26;98612.13;5015894;28;20041;-66
2022/06/14 10:48:49;;;;;;;9.45;5.82;;;;;;;33.15;25.27;98612.47;5038785;27;20047;-65
2022/06/14 10:51:29;;;;;;;6.45;5.85;;;;;;;31.61;27.85;98602.72;5099178;27;20100;-66
2022/06/14 10:54:08;;;;;;;8.85;5.93;;;;;;;31.01;29.00;98609.63;5080866;27;20523;-65
2022/06/14 10:56:58;;;;;;;5.25;4.75;;;;;;;30.66;28.72;98613.81;5063651;27;20486;-66
2022/06/14 10:59:42;;;;;;;7.55;5.05;;;;;;;29.74;30.04;98596.69;5098151;27;20046;-65
2022/06/14 11:02:12;;;;;;;6.97;5.40;;;;;;;29.13;30.89;98605.00;5081000;27;20047;-66
2022/06/14 11:04:41;;;;;;;6.03;5.40;;;;;;;28.50;31.99;98589.81;5099499;27;20051;-65
2022/06/14 11:07:43;;;;;;;5.68;4.63;;;;;;;28.34;32.16;98587.91;5102105;27;20497;-67
2022/06/14 11:10:19;;;;;;;6.82;4.97;;;;;;;27.97;32.54;98590.28;5086905;27;20047;-68
2022/06/14 11:13:16;;;;;;;7.38;5.30;;;;;;;27.69;33.46;98595.78;5086250;27;20039;-68
2022/06/14 11:15:45;;;;;;;6.50;4.72;;;;;;;27.43;33.82;98586.22;5091787;27;20119;-66
2022/06/14 11:18:37;;;;;;;7.72;5.40;;;;;;;27.18;34.08;98591.19;5118918;27;20043;-67
2022/06/14 11:21:21;;;;;;;8.07;5.53;;;;;;;26.86;35.09;98572.44;5118987;27;20051;-66
2022/06/14 11:24:09;;;;;;;5.80;5.20;;;;;;;26.75;35.46;98581.47;5118929;27;20053;-66
2022/06/14 11:26:57;;;;;;;7.25;4.43;;;;;;;26.81;35.48;98586.00;5100097;27;20400;-69
2022/06/14 11:29:43;;;;;;;8.75;5.45;;;;;;;27.09;35.29;98577.88;5119384;27;20038;-70
2022/06/14 11:32:22;;;;;;;6.90;4.97;;;;;;;27.20;35.32;98575.38;5100470;27;20031;-69
2022/06/14 11:35:45;;;;;;;7.05;5.25;;;;;;;27.02;34.99;98566.25;5119345;27;20046;-68
2022/06/14 11:38:41;;;;;;;7.03;5.85;;;;;;;26.75;36.33;98573.25;5014727;28;20096;-68
2022/06/14 11:41:10;;;;;;;5.97;4.88;;;;;;;26.72;36.35;98565.56;5000192;28;20619;-70
2022/06/14 11:43:53;;;;;;;5.30;4.78;;;;;;;26.90;36.20;98556.38;5001431;28;20053;-70
2022/06/14 11:46:40;;;;;;;5.95;4.82;;;;;;;27.21;35.88;98555.13;4998797;28;20052;-66
2022/06/14 11:49:14;;;;;;;6.03;4.80;;;;;;;27.27;35.51;98556.91;4998583;28;20083;-67
2022/06/14 11:51:51;;;;;;;6.85;4.75;;;;;;;27.19;34.15;98551.81;5015220;28;20040;-68
2022/06/14 11:54:44;;;;;;;6.78;4.80;;;;;;;27.30;33.97;98561.91;4998206;28;20060;-67
2022/06/14 11:57:11;;;;;;;7.60;4.55;;;;;;;27.27;34.78;98546.78;5007420;28;20518;-67
2022/06/14 11:59:56;;;;;;;14.05;5.95;;;;;;;27.42;34.46;98546.25;5019283;28;20473;-65
2022/06/14 12:02:43;;;;;;;8.18;4.47;;;;;;;27.62;34.13;98565.84;5015399;28;20064;-66
2022/06/14 12:05:23;;;;;;;5.78;4.95;;;;;;;27.09;35.42;98544.22;5014775;28;20402;-66
2022/06/14 12:08:25;;;;;;;5.13;4.57;;;;;;;27.08;35.34;98543.41;5013238;27;20093;-69
2022/06/14 12:11:10;;;;;;;5.25;4.50;;;;;;;27.04;34.58;98539.47;5111014;27;20072;-72
2022/06/14 12:13:35;;;;;;;7.28;4.57;;;;;;;26.94;34.65;98536.53;5119838;27;20034;-70
2022/06/14 12:16:21;;;;;;;7.78;5.10;;;;;;;26.97;35.05;98547.00;5120869;27;20057;-69
2022/06/14 12:19:07;;;;;;;6.53;4.65;;;;;;;26.86;35.71;98539.63;5102105;27;20514;-71
2022/06/14 12:21:36;;;;;;;7.32;4.93;;;;;;;26.72;36.03;98522.66;5101548;27;20042;-67
2022/06/14 12:24:07;;;;;;;5.93;5.00;;;;;;;26.82;36.61;98521.19;5118729;27;20051;-67
2022/06/14 12:26:34;;;;;;;6.10;5.00;;;;;;;26.86;35.90;98514.19;5118270;27;20484;-64